Gardena, North Dakota
Current Conditions -  °F | °C
As of 8:15 PM on Thursday 18 Dec 2014 (Local Time) from KRUG Reporting Station
Haze Haze  
Wind Chill: 14°   Ceiling: 100
Heat Index: 21°   Visibility: 1.2mi
Dew Point: 21°   Wind: 6mph
Humidity: 100%   Direction: 150°SSE
Pressure: 30.02"   Gusts: NA
Location:  48.6836°N, 100.4843°W
Report Text: KRUG 190215Z AUTO 15005KT 1 1/4SM BR OVC001 M06/M06 A3002 RMK AO2
Loading
Personal Weather Stations






























Interactive Weather Map New forecast layout! Learn more

10-Day Weather Forecast

Advertisements
Track Severe Weather on mobile